• Join FlightAware (Why Join?)
  • Login
  • US Flag 
08:49AM EDT


 

Airport Tracker/Info


-or-


 

Live Flight TrackerFlight Track Log ✈ N4426 ✈ 06-Aug-2014 ✈ MYNN / NAS - KFXE

Flight Track Log - Related Links

Times and Time Zones

All times are in EDT time to prevent confusion due to time zone crossing. See the N4426 flight status page for this flight to view local times or setup timezone preferences in your user account.

Time Position Orientation Groundspeed Altitude Reporting Facility
EDT Latitude Longitude Course Direction KTS MPH feet Rate Location/Type
06:12PM 24.9819 -77.4058 208° Southwest 254 292 3,800  Level Miami Center
06:13PM 24.9192 -77.4422 208° Southwest 279 321 6,900 3,000 Climbing Miami Center
06:14PM 24.9517 -77.5183 295° West 299 344 10,000 2,460 Climbing Miami Center
06:15PM 25.0178 -77.5786 320° Northwest 302 348 12,000 960 Climbing Miami Center
06:16PM 25.0547 -77.6764 293° West 344 396 12,100  Climbing Miami Center
06:17PM 25.1156 -77.7619 308° West 366 421 12,100 780 Level Miami Center
06:18PM 25.2086 -77.8339 325° Northwest 371 427 13,700 1,620 Climbing Miami Center
06:19PM 25.2653 -77.9300 303° West 375 432 15,500 1,440 Climbing Miami Center
06:20PM 25.3047 -78.0417 291° West 384 442 16,700 1,200 Climbing Miami Center
06:21PM 25.3500 -78.1689 292° West 400 460 18,100 1,260 Climbing Miami Center
06:22PM 25.3897 -78.2869 290° West 406 467 19,400 900 Climbing Miami Center
06:23PM 25.4319 -78.4067 291° West 417 480 20,000 240 Climbing Miami Center
06:24PM 25.4736 -78.5294 291° West 423 487 20,000  Level Miami Center
06:25PM 25.5219 -78.6650 292° West 427 491 20,000 -60 Level Miami Center
06:26PM 25.5633 -78.7878 291° West 427 491 19,900 -600 Descending Miami Center
06:27PM 25.6053 -78.9103 291° West 425 489 18,800 -1,620 Descending Miami Center
06:28PM 25.6483 -79.0364 291° West 415 478 16,700 -2,220 Descending Miami Center
06:29PM 25.6886 -79.1497 292° West 403 464 14,300 -2,220 Descending Miami Center
06:30PM 25.7264 -79.2619 291° West 393 452 12,200 -2,040 Descending Miami Center
06:31PM 25.7625 -79.3694 290° West 373 429 10,200 -1,980 Descending Miami Center
06:32PM 25.7969 -79.4739 290° West 363 418 8,200 -2,100 Descending Miami Center
06:33PM 25.8275 -79.5639 291° West 350 403 6,400 -1,980 Descending Miami Center
06:33PM 25.8311 -79.5733 293° West 348 400 6,200 -600 Descending Miami Center
06:34PM 25.8733 -79.6389 306° West 272 313 5,800 -540 Descending Miami Center
06:34PM 25.8758 -79.6397 343° North 282 325 5,700 -1,320 Descending Miami Center
06:35PM 25.9375 -79.6528 349° North 273 314 4,600 -1,680 Descending Miami Center
06:35PM 25.9672 -79.6583 350° North 279 321 4,000 -1,380 Descending Miami Center
06:36PM 26.0222 -79.6703 349° North 267 307 3,100 -1,020 Descending Miami Center
06:36PM 26.0389 -79.6739 349° North 267 307 3,000  Descending Miami Center
06:37PM 26.1025 -79.6925 345° North 260 299 3,100  Climbing Miami Center
06:37PM 26.1086 -79.6967 329° Northwest 265 305 3,000  Descending Miami Center
06:38PM 26.1558 -79.7497 315° West 270 311 3,100  Climbing Miami Center
06:38PM 26.1611 -79.7536 327° Northwest 266 306 3,000  Descending Miami Center
06:39PM 26.2069 -79.8022 316° Northwest 266 306 3,100  Climbing Miami Center
06:40PM 26.2156 -79.8106 319° Northwest 266 306 3,000  Descending Miami Center
06:40PM 26.2581 -79.8617 313° West 270 311 3,100  Climbing Miami Center
06:41PM 26.2622 -79.8725 293° West 268 308 3,000  Descending Miami Center
06:41PM 26.2572 -79.9428 265° West 272 313 3,100  Climbing Miami Center
06:42PM 26.2533 -79.9717 261° West 269 310 3,000 -120 Descending Miami Center
06:42PM 26.2483 -80.0211 264° West 257 296 3,000  Level Miami Center
06:43PM 26.2456 -80.0472 263° West 250 288 3,000 60 Level Miami Center
06:43PM 26.2414 -80.0972 265° West 216 249 3,100  Climbing Miami Center
06:44PM 26.2403 -80.1144 266° West 224 258 3,000 -120 Descending Miami Center
06:44PM 26.2353 -80.1642 264° West 219 252 3,000 -300 Level Miami Center
06:45PM 26.2339 -80.1817 265° West 224 258 2,700 -900 Descending Miami Center
06:45PM 26.2308 -80.2333 266° West 223 257 2,100 -720 Descending Miami Center
06:46PM 26.2294 -80.2506 265° West 224 258 2,000 -120 Descending Miami Center
06:46PM 26.2161 -80.3019 254° West 216 249 2,000 -120 Level Miami Center
06:47PM 26.2053 -80.3039 189° South 222 255 1,900 -540 Descending Miami Center
06:47PM 26.1889 -80.2697 118° Southeast 172 198 1,500 -600 Descending Miami Center
06:48PM 26.1903 -80.2592 82° East 176 203 1,300 -600 Descending Miami Center
06:48PM 26.1936 -80.2258 84° East 128 147 900 -780 Descending Miami Center
06:49PM 26.1950 -80.2097 85° East 133 153 500 -600 Descending Miami Center
06:50PM 26.1992 -80.1711 83° East 133 153 100 -420 Descending Miami Center